Time;durP1;ratioP1;P1;durP2;ratioP2;P2;SDS_P1;SDS_P2;PMS_P1;PMS_P2;Temp;Humidity;BMP_temperature;BMP_pressure;BME280_temperature;BME280_humidity;BME280_pressure;Samples;Min_cycle;Max_cycle;Signal;HPM_P1;HPM_P2
2022/07/06 00:00:07;;;;;;;5.60;1.90;;;17.10;99.90;;;;;;5097249;28;20488;-80
2022/07/06 00:02:34;;;;;;;3.80;1.70;;;17.00;99.90;;;;;;5098246;28;20543;-79
2022/07/06 00:05:01;;;;;;;5.10;1.60;;;17.00;99.90;;;;;;5099275;28;20462;-80
2022/07/06 00:07:27;;;;;;;6.10;1.57;;;17.00;99.90;;;;;;5086600;28;20586;-80
2022/07/06 00:09:54;;;;;;;4.63;1.77;;;17.00;99.90;;;;;;5078713;28;20472;-81
2022/07/06 00:12:21;;;;;;;5.90;1.83;;;16.90;99.90;;;;;;5080531;28;20451;-79
2022/07/06 00:14:49;;;;;;;3.60;1.73;;;16.90;99.90;;;;;;5080475;28;20992;-79
2022/07/06 00:17:16;;;;;;;4.50;2.30;;;16.90;99.90;;;;;;5079556;28;20480;-78
2022/07/06 00:19:43;;;;;;;5.00;1.60;;;16.90;99.90;;;;;;5079272;28;20471;-79
2022/07/06 00:22:10;;;;;;;6.93;2.03;;;16.90;99.90;;;;;;5081278;28;20539;-79
2022/07/06 00:24:37;;;;;;;2.70;1.40;;;16.90;99.90;;;;;;5077679;28;20892;-79
2022/07/06 00:27:04;;;;;;;4.80;2.30;;;17.00;99.90;;;;;;5078871;28;20521;-79
2022/07/06 00:29:31;;;;;;;4.83;2.23;;;16.90;99.90;;;;;;5079541;28;20539;-80
2022/07/06 00:32:00;;;;;;;3.37;1.80;;;16.90;99.90;;;;;;5079602;28;20449;-78
2022/07/06 00:34:26;;;;;;;4.10;1.53;;;16.90;99.90;;;;;;5078451;28;20492;-81
2022/07/06 00:36:53;;;;;;;3.80;1.50;;;16.80;99.90;;;;;;5081617;28;20912;-80
2022/07/06 00:39:21;;;;;;;7.67;1.80;;;16.80;99.90;;;;;;5084495;28;20475;-79
2022/07/06 00:41:48;;;;;;;3.57;1.90;;;16.90;99.90;;;;;;5077071;28;20551;-78
2022/07/06 00:44:15;;;;;;;3.60;1.43;;;16.80;99.90;;;;;;5077457;28;20539;-81
2022/07/06 00:46:42;;;;;;;5.53;1.73;;;16.80;99.90;;;;;;5080238;28;20866;-79
2022/07/06 00:50:13;;;;;;;5.70;2.17;;;16.80;99.90;;;;;;5078586;28;20897;-80
2022/07/06 00:51:58;;;;;;;6.37;2.67;;;16.70;99.90;;;;;;5079220;28;20472;-80
2022/07/06 00:54:26;;;;;;;4.20;2.13;;;16.70;99.90;;;;;;5073614;28;20557;-79
2022/07/06 00:56:52;;;;;;;5.03;2.30;;;16.60;99.90;;;;;;5077463;28;20540;-80
2022/07/06 00:59:20;;;;;;;4.43;2.17;;;16.50;99.90;;;;;;5078630;28;20541;-80
2022/07/06 01:01:47;;;;;;;4.30;2.30;;;16.50;99.90;;;;;;5080388;28;20537;-79
2022/07/06 01:04:15;;;;;;;8.03;2.07;;;16.40;99.90;;;;;;5078995;28;20461;-80
2022/07/06 01:06:42;;;;;;;3.90;2.03;;;16.30;99.90;;;;;;5080310;28;20499;-81
2022/07/06 01:09:09;;;;;;;4.17;2.10;;;16.30;99.90;;;;;;5087790;28;20455;-79
2022/07/06 01:11:36;;;;;;;5.67;2.07;;;16.10;99.90;;;;;;5085085;28;20486;-79
2022/07/06 01:14:02;;;;;;;4.87;1.83;;;16.10;99.90;;;;;;5079383;28;20486;-79
2022/07/06 01:16:30;;;;;;;3.87;2.07;;;16.10;99.90;;;;;;5077289;28;20509;-79
2022/07/06 01:18:57;;;;;;;3.50;1.80;;;16.20;99.90;;;;;;5080062;28;20493;-80
2022/07/06 01:21:25;;;;;;;4.27;1.57;;;16.10;99.90;;;;;;5077090;28;20543;-79
2022/07/06 01:23:52;;;;;;;4.63;1.87;;;16.10;99.90;;;;;;5077372;28;20534;-81
2022/07/06 01:26:21;;;;;;;6.87;1.73;;;16.10;99.90;;;;;;5077415;28;20510;-80
2022/07/06 01:28:49;;;;;;;5.03;2.77;;;16.10;99.90;;;;;;5078323;28;20487;-80
2022/07/06 01:31:18;;;;;;;7.80;1.57;;;16.10;99.90;;;;;;5079084;28;20458;-79
2022/07/06 01:33:45;;;;;;;5.70;1.50;;;16.10;99.90;;;;;;5074451;28;20908;-80
2022/07/06 01:36:12;;;;;;;5.97;1.60;;;16.00;99.90;;;;;;5079384;28;20563;-79
2022/07/06 01:38:48;;;;;;;5.67;1.40;;;16.10;99.90;;;;;;5078700;28;20451;-78
2022/07/06 01:41:15;;;;;;;3.73;1.67;;;16.10;99.90;;;;;;5079485;28;20943;-78
2022/07/06 01:43:42;;;;;;;3.13;1.83;;;16.10;99.90;;;;;;5076715;28;20454;-79
2022/07/06 01:46:09;;;;;;;4.20;1.30;;;16.00;99.90;;;;;;5078672;28;20542;-79
2022/07/06 01:48:36;;;;;;;4.10;1.80;;;16.10;99.90;;;;;;5076791;28;20566;-80
2022/07/06 01:51:03;;;;;;;2.87;1.40;;;16.00;99.90;;;;;;5078836;28;20486;-80
2022/07/06 01:53:30;;;;;;;3.87;1.37;;;16.10;99.90;;;;;;5075777;28;20479;-81
2022/07/06 01:55:58;;;;;;;3.20;1.60;;;16.10;99.90;;;;;;5078368;28;20977;-76
2022/07/06 01:58:25;;;;;;;3.13;1.20;;;16.00;99.90;;;;;;5077658;28;20503;-80
2022/07/06 02:00:52;;;;;;;2.93;1.40;;;15.90;99.90;;;;;;5078391;28;20989;-79
2022/07/06 02:03:19;;;;;;;2.73;1.40;;;15.90;99.90;;;;;;5076041;28;20839;-78
2022/07/06 02:05:46;;;;;;;3.93;1.50;;;15.80;99.90;;;;;;5077953;28;20546;-78
2022/07/06 02:08:13;;;;;;;7.43;1.60;;;15.80;99.90;;;;;;5077748;28;20510;-81
2022/07/06 02:10:40;;;;;;;4.27;1.60;;;15.70;99.90;;;;;;5078681;28;20467;-79
2022/07/06 02:13:08;;;;;;;3.53;1.60;;;15.60;99.90;;;;;;5076464;28;20486;-80
2022/07/06 02:15:35;;;;;;;5.27;1.87;;;15.60;99.90;;;;;;5078352;28;20481;-78
2022/07/06 02:18:02;;;;;;;8.23;1.77;;;15.50;99.90;;;;;;5075998;28;20474;-80
2022/07/06 02:20:28;;;;;;;6.13;1.60;;;15.50;99.90;;;;;;5075530;28;20546;-80
2022/07/06 02:22:55;;;;;;;3.87;1.60;;;15.50;99.90;;;;;;5075858;28;20451;-80
2022/07/06 02:25:22;;;;;;;4.30;1.80;;;15.50;99.90;;;;;;5076734;28;20537;-77
2022/07/06 02:27:49;;;;;;;3.00;1.40;;;15.40;99.90;;;;;;5075475;28;20498;-80
2022/07/06 02:30:17;;;;;;;4.10;1.83;;;15.30;99.90;;;;;;5077047;28;20548;-79
2022/07/06 02:32:44;;;;;;;3.30;1.37;;;15.30;99.90;;;;;;5075637;28;20541;-79
2022/07/06 02:35:11;;;;;;;4.10;1.50;;;15.30;99.90;;;;;;5075119;28;20461;-79
2022/07/06 02:37:38;;;;;;;4.33;1.80;;;15.30;99.90;;;;;;5075592;28;20493;-80
2022/07/06 02:40:07;;;;;;;3.60;1.43;;;15.20;99.90;;;;;;5076076;28;20484;-79
2022/07/06 02:42:33;;;;;;;3.60;1.40;;;15.20;99.90;;;;;;5075610;28;20487;-81
2022/07/06 02:45:00;;;;;;;4.30;2.07;;;15.10;99.90;;;;;;5074492;28;20485;-81
2022/07/06 02:47:29;;;;;;;4.03;1.33;;;15.10;99.90;;;;;;5075792;28;20491;-80
2022/07/06 02:49:55;;;;;;;3.30;1.60;;;15.00;99.90;;;;;;5074106;28;20461;-79
2022/07/06 02:52:22;;;;;;;3.30;1.63;;;15.00;99.90;;;;;;5072554;28;20453;-80
2022/07/06 02:54:49;;;;;;;3.03;1.43;;;14.90;99.90;;;;;;5074230;28;20463;-80
2022/07/06 02:57:17;;;;;;;4.23;1.60;;;14.90;99.90;;;;;;5074880;28;20915;-80
2022/07/06 02:59:44;;;;;;;3.50;1.53;;;14.80;99.90;;;;;;5066999;28;20552;-81
2022/07/06 03:02:11;;;;;;;5.73;1.70;;;14.80;99.90;;;;;;5078735;28;20935;-80
2022/07/06 03:04:39;;;;;;;3.30;1.70;;;14.70;99.90;;;;;;5077774;28;20453;-81
2022/07/06 03:07:06;;;;;;;4.90;1.73;;;14.70;99.90;;;;;;5083865;28;20470;-81
2022/07/06 03:09:33;;;;;;;4.97;1.80;;;14.70;99.90;;;;;;5087503;28;20481;-80
2022/07/06 03:12:00;;;;;;;3.63;1.70;;;14.60;99.90;;;;;;5092449;28;20468;-79
2022/07/06 03:14:26;;;;;;;5.43;2.43;;;14.60;99.90;;;;;;5087121;28;20458;-80
2022/07/06 03:16:54;;;;;;;4.10;1.77;;;14.50;99.90;;;;;;5080944;28;20552;-80
2022/07/06 03:19:21;;;;;;;3.83;1.57;;;14.50;99.90;;;;;;5080644;28;20896;-81
2022/07/06 03:21:49;;;;;;;7.13;2.47;;;14.50;99.90;;;;;;5080840;28;20469;-81
2022/07/06 03:24:16;;;;;;;3.97;1.80;;;14.50;99.90;;;;;;5079079;28;20546;-80
2022/07/06 03:26:43;;;;;;;7.37;2.60;;;14.40;99.90;;;;;;5079794;28;20478;-81
2022/07/06 03:29:10;;;;;;;4.13;2.20;;;14.50;99.90;;;;;;5081202;28;20503;-80
2022/07/06 03:31:36;;;;;;;5.60;3.00;;;14.40;99.90;;;;;;5093436;28;20475;-81
2022/07/06 03:34:03;;;;;;;5.93;2.50;;;14.40;99.90;;;;;;5095733;28;20487;-82
2022/07/06 03:36:30;;;;;;;5.33;2.07;;;14.40;99.90;;;;;;5097161;28;20459;-81
2022/07/06 03:38:58;;;;;;;6.93;2.03;;;14.50;99.90;;;;;;5097338;28;20448;-80
2022/07/06 03:41:25;;;;;;;7.00;1.87;;;14.50;99.90;;;;;;5097248;28;20445;-82
2022/07/06 03:43:52;;;;;;;4.40;2.20;;;14.60;99.90;;;;;;5097140;28;20442;-80
2022/07/06 03:46:19;;;;;;;3.70;1.90;;;14.60;99.90;;;;;;5091669;28;20476;-81
2022/07/06 03:48:46;;;;;;;3.83;1.90;;;14.60;99.90;;;;;;5090752;28;20564;-80
2022/07/06 03:51:13;;;;;;;2.93;1.60;;;14.70;99.90;;;;;;5090664;28;20432;-81
2022/07/06 03:53:40;;;;;;;4.30;1.97;;;14.70;99.90;;;;;;5086578;28;20451;-81
2022/07/06 03:58:53;;;;;;;3.70;1.67;;;14.80;99.90;;;;;;5090179;28;20464;-82
2022/07/06 04:01:20;;;;;;;4.53;2.30;;;14.80;99.90;;;;;;5085622;28;20481;-81
2022/07/06 04:03:46;;;;;;;4.20;1.90;;;14.90;99.90;;;;;;5084429;28;20532;-81
2022/07/06 04:06:13;;;;;;;5.57;1.90;;;14.90;99.90;;;;;;5084016;28;20449;-81
2022/07/06 04:08:40;;;;;;;4.83;2.20;;;14.90;99.90;;;;;;5083988;28;20531;-81
2022/07/06 04:11:09;;;;;;;5.50;1.70;;;15.00;99.90;;;;;;5090798;28;20487;-83
2022/07/06 04:13:36;;;;;;;4.30;2.10;;;15.10;99.90;;;;;;5091766;28;20488;-83
2022/07/06 04:16:04;;;;;;;4.77;2.60;;;15.10;99.90;;;;;;5089440;28;20525;-83
2022/07/06 04:18:31;;;;;;;5.93;2.60;;;15.20;99.90;;;;;;5092717;28;20478;-81
2022/07/06 04:20:58;;;;;;;4.17;3.07;;;15.20;99.90;;;;;;5091978;28;20530;-81
2022/07/06 04:23:25;;;;;;;10.93;3.17;;;15.30;99.90;;;;;;5091904;28;20452;-82
2022/07/06 04:25:52;;;;;;;10.30;3.03;;;15.30;99.90;;;;;;5092480;28;20506;-82
2022/07/06 04:28:20;;;;;;;4.63;2.53;;;15.30;99.90;;;;;;5092707;28;20550;-81
2022/07/06 04:30:47;;;;;;;6.97;2.60;;;15.40;99.90;;;;;;5092051;28;20450;-82
2022/07/06 04:33:14;;;;;;;4.20;2.50;;;15.40;99.90;;;;;;5092323;28;20513;-82
2022/07/06 04:35:41;;;;;;;4.77;2.60;;;15.50;99.90;;;;;;5092810;28;20455;-85
2022/07/06 04:38:08;;;;;;;3.80;2.40;;;15.50;99.90;;;;;;5093109;28;20538;-83
2022/07/06 04:40:34;;;;;;;6.93;2.50;;;15.50;99.90;;;;;;5092243;28;20459;-84
2022/07/06 04:43:01;;;;;;;5.07;2.67;;;15.50;99.90;;;;;;5090090;28;20462;-82
2022/07/06 04:45:30;;;;;;;4.03;1.90;;;15.50;99.90;;;;;;5092388;28;20462;-81
2022/07/06 04:47:57;;;;;;;5.17;2.03;;;15.50;99.90;;;;;;5092675;28;20484;-84
2022/07/06 04:50:24;;;;;;;7.20;2.83;;;15.60;99.90;;;;;;5091602;28;20436;-82
2022/07/06 04:52:50;;;;;;;4.57;2.30;;;15.60;99.90;;;;;;5092135;28;20767;-81
2022/07/06 04:55:17;;;;;;;4.60;2.27;;;15.60;99.90;;;;;;5092769;28;20447;-82
2022/07/06 04:57:44;;;;;;;5.77;1.83;;;15.70;99.90;;;;;;5086569;28;20485;-83
2022/07/06 05:00:12;;;;;;;4.03;1.93;;;15.60;99.90;;;;;;5091552;28;20441;-83
2022/07/06 05:02:40;;;;;;;7.23;1.93;;;15.60;99.90;;;;;;5091583;28;20439;-80
2022/07/06 05:05:09;;;;;;;8.90;2.00;;;15.60;99.90;;;;;;5090974;28;20443;-82
2022/07/06 05:07:39;;;;;;;4.23;2.23;;;15.60;99.90;;;;;;5060954;28;20485;-78
2022/07/06 05:10:07;;;;;;;4.50;1.80;;;15.60;99.90;;;;;;5076288;28;20489;-81
2022/07/06 05:12:34;;;;;;;3.00;1.67;;;15.60;99.90;;;;;;5078170;28;20468;-80
2022/07/06 05:15:01;;;;;;;5.00;2.23;;;15.50;99.90;;;;;;5087476;28;20453;-82
2022/07/06 05:17:27;;;;;;;4.30;2.27;;;15.60;99.90;;;;;;5097994;28;20988;-79
2022/07/06 05:20:02;;;;;;;6.37;1.83;;;15.70;99.90;;;;;;5081648;28;21120;-80
2022/07/06 05:22:29;;;;;;;4.80;2.03;;;15.70;99.90;;;;;;5083861;28;20535;-80
2022/07/06 05:24:56;;;;;;;7.03;2.10;;;15.80;99.90;;;;;;5084988;28;20825;-80
2022/07/06 05:27:24;;;;;;;4.80;1.90;;;15.80;99.90;;;;;;5081614;28;20568;-80
2022/07/06 05:29:50;;;;;;;4.53;1.93;;;15.90;99.90;;;;;;5083792;28;20486;-80
2022/07/06 05:32:17;;;;;;;8.67;2.00;;;16.00;99.90;;;;;;5085290;28;20545;-80
2022/07/06 05:34:44;;;;;;;5.63;1.87;;;16.00;99.90;;;;;;5084588;28;20513;-79
2022/07/06 05:37:12;;;;;;;8.97;1.63;;;16.00;99.90;;;;;;5083743;28;20497;-81
2022/07/06 05:39:43;;;;;;;6.83;1.90;;;16.10;99.90;;;;;;5081194;28;21324;-80
2022/07/06 05:42:10;;;;;;;6.10;1.53;;;16.20;99.90;;;;;;5085298;28;20443;-80
2022/07/06 05:44:37;;;;;;;5.23;2.23;;;16.20;99.90;;;;;;5086517;28;20480;-82
2022/07/06 05:52:34;;;;;;;4.23;1.80;;;16.30;99.90;;;;;;5084459;28;20438;-81
2022/07/06 05:55:05;;;;;;;7.93;2.00;;;16.30;99.90;;;;;;5085095;28;20451;-82
2022/07/06 05:57:32;;;;;;;6.20;1.67;;;16.40;99.90;;;;;;5088209;28;20509;-82
2022/07/06 05:59:59;;;;;;;5.60;1.70;;;16.50;99.90;;;;;;5085378;28;20446;-80
2022/07/06 06:02:25;;;;;;;6.03;1.53;;;16.50;99.90;;;;;;5086847;28;20536;-79
2022/07/06 06:04:53;;;;;;;7.00;1.50;;;16.50;99.90;;;;;;5085151;28;20526;-79
2022/07/06 06:07:20;;;;;;;4.20;1.80;;;16.60;99.90;;;;;;5086067;28;20475;-82
2022/07/06 06:09:48;;;;;;;5.30;1.87;;;16.70;99.90;;;;;;5089183;28;20580;-82
2022/07/06 06:12:15;;;;;;;6.43;1.60;;;16.90;99.90;;;;;;5085300;28;21304;-81
2022/07/06 06:14:50;;;;;;;3.43;1.10;;;17.00;99.90;;;;;;5085251;28;20924;-84
2022/07/06 06:17:19;;;;;;;5.53;1.30;;;17.10;99.90;;;;;;5086533;28;20487;-82
2022/07/06 06:19:46;;;;;;;5.03;1.30;;;17.30;99.90;;;;;;5088773;28;20442;-79
2022/07/06 06:22:14;;;;;;;3.90;1.30;;;17.40;99.90;;;;;;5092052;28;20447;-80
2022/07/06 06:24:41;;;;;;;5.37;1.60;;;17.50;99.90;;;;;;5087397;28;20829;-82
2022/07/06 06:27:09;;;;;;;3.50;1.30;;;17.60;99.90;;;;;;5085223;28;20495;-81
2022/07/06 06:29:36;;;;;;;5.30;1.50;;;17.60;99.90;;;;;;5087731;28;21101;-79
2022/07/06 06:32:05;;;;;;;6.00;1.90;;;17.70;99.90;;;;;;5088649;28;20999;-81
2022/07/06 06:34:32;;;;;;;3.90;1.80;;;17.70;99.90;;;;;;5082855;28;20471;-80
2022/07/06 06:37:02;;;;;;;6.23;1.50;;;17.90;99.90;;;;;;5072723;28;20544;-78
2022/07/06 06:39:29;;;;;;;6.90;1.80;;;18.00;99.90;;;;;;5090445;28;20475;-81
2022/07/06 06:41:55;;;;;;;4.60;1.20;;;18.10;99.90;;;;;;5073146;28;20456;-82
2022/07/06 06:44:24;;;;;;;6.60;1.30;;;18.20;99.90;;;;;;5075300;28;20476;-81
2022/07/06 06:46:51;;;;;;;3.03;1.00;;;18.30;99.90;;;;;;5075097;28;20885;-81
2022/07/06 06:49:18;;;;;;;8.13;1.30;;;18.30;99.90;;;;;;5075470;28;20490;-81
2022/07/06 06:51:45;;;;;;;3.80;1.00;;;18.30;99.90;;;;;;5074914;28;20543;-79
2022/07/06 06:54:12;;;;;;;9.03;1.90;;;18.30;99.90;;;;;;5074493;28;20479;-81
2022/07/06 06:56:39;;;;;;;8.40;1.60;;;18.40;99.90;;;;;;5077190;28;20552;-80
2022/07/06 06:59:06;;;;;;;7.20;1.40;;;18.40;99.90;;;;;;5072646;28;20896;-81
2022/07/06 07:01:34;;;;;;;3.40;0.93;;;18.50;99.90;;;;;;5081478;28;20473;-80
2022/07/06 07:04:01;;;;;;;3.13;1.07;;;18.50;99.90;;;;;;5078885;28;20447;-78
2022/07/06 07:06:28;;;;;;;3.50;1.10;;;18.50;99.90;;;;;;5078309;28;20504;-81
2022/07/06 07:08:55;;;;;;;2.73;1.00;;;18.50;99.90;;;;;;5077865;28;20478;-81
2022/07/06 07:11:22;;;;;;;4.10;0.90;;;18.50;99.90;;;;;;5085803;28;20465;-81
2022/07/06 07:13:49;;;;;;;9.00;1.30;;;18.50;99.90;;;;;;5079849;28;20488;-80
2022/07/06 07:16:16;;;;;;;5.33;1.10;;;18.50;99.90;;;;;;5092237;28;20511;-81
2022/07/06 07:18:47;;;;;;;3.70;1.10;;;18.60;99.90;;;;;;5101663;28;20464;-79
2022/07/06 07:21:13;;;;;;;2.80;1.20;;;18.60;99.90;;;;;;5083115;28;20471;-78
2022/07/06 07:23:40;;;;;;;4.50;0.97;;;18.60;99.90;;;;;;5078827;28;20525;-80
2022/07/06 07:26:07;;;;;;;2.67;1.00;;;18.70;99.90;;;;;;5082451;28;20467;-83
2022/07/06 07:28:34;;;;;;;4.90;0.90;;;18.70;99.90;;;;;;5080174;28;20486;-79
2022/07/06 07:31:04;;;;;;;4.37;1.20;;;18.70;99.90;;;;;;5084759;28;20464;-81
2022/07/06 07:33:31;;;;;;;7.53;1.67;;;18.80;99.90;;;;;;5077090;28;20462;-79
2022/07/06 07:35:59;;;;;;;4.00;1.20;;;18.90;99.90;;;;;;5077867;28;20493;-80
2022/07/06 07:38:26;;;;;;;3.23;1.03;;;19.00;99.90;;;;;;5083142;28;20504;-80
2022/07/06 07:40:55;;;;;;;4.67;1.10;;;19.10;99.90;;;;;;5087137;28;20456;-78
2022/07/06 07:43:22;;;;;;;4.90;1.33;;;19.10;99.90;;;;;;5078774;28;20454;-82
2022/07/06 07:45:49;;;;;;;5.60;1.17;;;19.10;99.90;;;;;;5074663;28;20462;-79
2022/07/06 07:48:16;;;;;;;7.77;1.50;;;19.10;99.90;;;;;;5080277;28;20512;-81
2022/07/06 07:50:43;;;;;;;5.83;1.10;;;19.20;99.90;;;;;;5080887;28;20580;-80
2022/07/06 07:53:11;;;;;;;2.43;0.93;;;19.00;99.90;;;;;;5077390;28;20999;-80
2022/07/06 07:55:38;;;;;;;3.43;1.00;;;19.10;99.90;;;;;;5081025;28;20558;-80
2022/07/06 07:58:05;;;;;;;3.93;0.90;;;19.20;99.90;;;;;;5078985;28;20572;-81
2022/07/06 08:00:33;;;;;;;3.17;1.00;;;19.30;99.90;;;;;;5082902;28;20821;-80
2022/07/06 08:03:00;;;;;;;3.30;0.87;;;19.50;99.90;;;;;;5081173;28;20469;-77
2022/07/06 08:05:27;;;;;;;2.97;0.90;;;19.50;99.90;;;;;;5082590;28;20898;-81
2022/07/06 08:07:54;;;;;;;5.00;0.97;;;19.60;99.90;;;;;;5083302;28;20986;-79
2022/07/06 08:10:23;;;;;;;2.70;0.90;;;19.50;99.90;;;;;;5108386;22;20508;-79
2022/07/06 08:12:49;;;;;;;2.70;0.90;;;19.50;99.90;;;;;;5095098;28;20889;-80
2022/07/06 08:15:17;;;;;;;2.70;1.40;;;19.50;99.90;;;;;;5101334;28;20510;-78
2022/07/06 08:17:44;;;;;;;3.80;0.83;;;19.60;99.90;;;;;;5092236;28;20554;-80
2022/07/06 08:20:11;;;;;;;3.60;1.00;;;19.90;99.90;;;;;;5086997;28;20471;-78
2022/07/06 08:22:39;;;;;;;2.67;0.87;;;20.10;99.90;;;;;;5080175;28;20486;-79
2022/07/06 08:25:07;;;;;;;3.40;1.00;;;20.30;99.90;;;;;;5072669;28;20549;-80
2022/07/06 08:27:35;;;;;;;2.80;0.90;;;20.20;99.90;;;;;;5081152;28;20482;-79
2022/07/06 08:30:02;;;;;;;3.60;1.10;;;20.10;99.90;;;;;;5078657;28;20491;-82
2022/07/06 08:32:29;;;;;;;4.53;0.90;;;20.10;99.90;;;;;;5070960;28;20448;-79
2022/07/06 08:34:56;;;;;;;2.10;0.80;;;20.00;99.90;;;;;;5077908;28;20479;-81
2022/07/06 08:37:23;;;;;;;3.20;1.00;;;19.80;99.90;;;;;;5080631;28;20804;-80
2022/07/06 08:39:50;;;;;;;2.23;0.90;;;19.80;99.90;;;;;;5082802;28;20455;-79
2022/07/06 08:42:17;;;;;;;2.63;0.80;;;19.90;99.90;;;;;;5082793;28;20451;-79
2022/07/06 08:44:46;;;;;;;3.73;1.30;;;19.90;99.90;;;;;;5073969;28;20446;-81
2022/07/06 08:47:14;;;;;;;2.93;0.93;;;19.70;99.90;;;;;;5080505;28;20470;-79
2022/07/06 08:49:43;;;;;;;6.70;1.20;;;19.70;99.90;;;;;;5082547;28;20566;-78
2022/07/06 08:52:10;;;;;;;5.10;1.10;;;19.80;99.90;;;;;;5071063;28;20487;-81
2022/07/06 08:54:39;;;;;;;2.97;0.70;;;19.90;99.90;;;;;;5071026;28;20904;-80
2022/07/06 08:57:06;;;;;;;3.10;1.13;;;19.90;99.90;;;;;;5082557;28;20483;-81
2022/07/06 08:59:34;;;;;;;4.50;1.17;;;20.20;99.90;;;;;;5081902;28;20503;-81
2022/07/06 09:02:04;;;;;;;3.60;0.90;;;20.20;99.90;;;;;;5083480;28;20451;-81
2022/07/06 09:04:34;;;;;;;2.20;0.70;;;20.30;99.90;;;;;;5080608;28;20463;-80
2022/07/06 09:07:01;;;;;;;4.57;1.00;;;20.20;99.90;;;;;;5080564;28;20970;-81
2022/07/06 09:09:31;;;;;;;4.10;0.80;;;20.20;99.90;;;;;;5080759;28;20548;-81
2022/07/06 09:11:58;;;;;;;2.60;0.90;;;20.20;99.90;;;;;;5072353;28;20450;-79
2022/07/06 09:14:25;;;;;;;2.83;0.87;;;20.30;99.90;;;;;;5062939;28;20837;-79
2022/07/06 09:17:03;;;;;;;4.87;1.13;;;20.90;99.90;;;;;;5062210;28;20491;-80
2022/07/06 09:19:32;;;;;;;3.00;0.93;;;21.40;99.90;;;;;;5063387;28;20478;-79
2022/07/06 09:21:59;;;;;;;2.90;0.83;;;22.10;99.90;;;;;;5077735;28;20447;-80
2022/07/06 09:24:26;;;;;;;3.30;0.90;;;22.70;99.90;;;;;;5083065;28;20462;-81
2022/07/06 09:26:57;;;;;;;4.07;0.73;;;23.40;99.90;;;;;;5084771;28;20515;-79
2022/07/06 09:29:28;;;;;;;3.03;0.87;;;23.50;99.90;;;;;;5071218;28;20478;-80
2022/07/06 09:31:59;;;;;;;2.33;0.80;;;23.20;99.90;;;;;;5072766;28;20435;-78
2022/07/06 09:34:40;;;;;;;2.60;0.90;;;22.60;99.90;;;;;;5074805;28;20478;-78
2022/07/06 09:37:09;;;;;;;2.73;0.70;;;22.20;99.90;;;;;;5069944;28;20457;-79
2022/07/06 09:39:36;;;;;;;2.90;0.80;;;22.00;99.90;;;;;;5070502;28;20559;-79
2022/07/06 09:42:06;;;;;;;3.70;1.00;;;21.80;99.90;;;;;;5075556;28;20837;-79
2022/07/06 09:44:36;;;;;;;3.40;0.93;;;21.70;99.90;;;;;;5066873;28;20511;-81
2022/07/06 09:47:06;;;;;;;2.60;0.80;;;21.80;99.90;;;;;;5074167;28;20959;-79
2022/07/06 09:49:33;;;;;;;3.13;0.80;;;21.90;99.90;;;;;;5072290;28;20477;-81
2022/07/06 09:52:02;;;;;;;4.43;1.10;;;21.90;99.90;;;;;;5074162;28;20545;-81
2022/07/06 09:54:30;;;;;;;2.90;0.90;;;21.80;99.90;;;;;;5074701;28;20486;-80
2022/07/06 09:56:57;;;;;;;3.60;1.40;;;21.50;99.90;;;;;;5073307;28;20469;-80
2022/07/06 09:59:26;;;;;;;3.80;0.80;;;21.40;99.90;;;;;;5074038;28;20472;-80
2022/07/06 10:01:54;;;;;;;2.50;0.87;;;21.20;99.90;;;;;;5073185;28;20558;-82
2022/07/06 10:04:21;;;;;;;4.37;0.97;;;21.00;99.90;;;;;;5073562;28;20512;-80
2022/07/06 10:06:49;;;;;;;2.37;0.77;;;20.90;99.90;;;;;;5071757;28;20488;-80
2022/07/06 10:09:17;;;;;;;2.77;1.00;;;20.70;99.90;;;;;;5067576;28;20494;-81
2022/07/06 10:11:48;;;;;;;6.73;1.10;;;20.60;99.90;;;;;;5055190;28;21028;-81
2022/07/06 10:14:19;;;;;;;3.03;0.80;;;20.60;99.90;;;;;;5056526;28;20484;-82
2022/07/06 10:16:46;;;;;;;3.03;0.93;;;20.60;99.90;;;;;;5074342;28;20458;-82
2022/07/06 10:19:15;;;;;;;3.40;1.10;;;20.50;99.90;;;;;;5074481;28;20538;-80
2022/07/06 10:21:42;;;;;;;3.50;1.00;;;20.50;99.90;;;;;;5074395;28;20550;-82
2022/07/06 10:24:10;;;;;;;3.10;0.90;;;20.40;99.90;;;;;;5075859;28;20453;-81
2022/07/06 10:26:38;;;;;;;2.30;0.90;;;20.40;99.90;;;;;;5071403;28;20451;-81
2022/07/06 10:29:10;;;;;;;3.00;0.80;;;21.00;99.90;;;;;;5068813;28;20584;-79
2022/07/06 10:31:40;;;;;;;3.67;0.80;;;21.80;99.90;;;;;;5072641;28;20515;-80
2022/07/06 10:34:11;;;;;;;2.20;0.80;;;22.30;99.90;;;;;;5079088;28;20562;-81
2022/07/06 10:36:39;;;;;;;6.20;1.13;;;22.90;99.90;;;;;;5086344;28;20438;-81
2022/07/06 10:41:47;;;;;;;3.43;0.90;;;22.70;99.90;;;;;;5054680;28;20444;-81
2022/07/06 10:44:19;;;;;;;3.13;0.87;;;22.40;99.90;;;;;;5064750;28;20485;-80
2022/07/06 10:46:54;;;;;;;5.20;0.93;;;22.30;99.90;;;;;;5071457;28;20963;-77
2022/07/06 10:49:22;;;;;;;2.10;0.80;;;22.00;99.90;;;;;;5064795;28;20471;-78
2022/07/06 10:51:50;;;;;;;3.33;0.80;;;22.00;99.90;;;;;;5056062;28;20479;-79
2022/07/06 10:54:18;;;;;;;2.40;0.80;;;22.10;99.90;;;;;;5068319;28;20450;-81
2022/07/06 10:56:47;;;;;;;2.53;0.90;;;22.20;99.90;;;;;;5093615;28;20469;-79
2022/07/06 10:59:14;;;;;;;2.87;1.30;;;22.40;99.90;;;;;;5092289;28;20459;-81
2022/07/06 11:02:15;;;;;;;2.50;0.80;;;22.60;99.90;;;;;;5061951;28;20470;-80
2022/07/06 11:04:43;;;;;;;5.40;1.17;;;22.60;99.90;;;;;;5060177;28;20486;-80
2022/07/06 11:07:11;;;;;;;3.10;1.03;;;22.60;99.90;;;;;;5081089;28;20494;-80
2022/07/06 11:09:38;;;;;;;2.63;1.00;;;22.90;99.90;;;;;;5080089;28;20529;-80
2022/07/06 11:12:15;;;;;;;3.73;0.90;;;23.70;99.90;;;;;;5079700;28;20483;-80
2022/07/06 11:14:42;;;;;;;3.30;0.80;;;23.90;99.90;;;;;;5070939;28;20486;-80
2022/07/06 11:17:12;;;;;;;2.40;0.80;;;23.80;99.90;;;;;;5064021;28;20448;-80
2022/07/06 11:19:39;;;;;;;3.10;0.90;;;23.50;99.90;;;;;;5074037;28;20479;-81
2022/07/06 11:22:08;;;;;;;3.07;1.10;;;23.10;99.90;;;;;;5070893;28;21036;-80
2022/07/06 11:24:39;;;;;;;3.37;0.97;;;22.70;99.90;;;;;;5081064;28;20459;-80
2022/07/06 11:27:06;;;;;;;4.80;0.90;;;22.60;99.90;;;;;;5081245;28;20839;-80
2022/07/06 11:29:36;;;;;;;3.83;1.03;;;22.50;99.90;;;;;;5080557;28;20482;-79
2022/07/06 11:32:04;;;;;;;2.77;1.17;;;23.00;99.90;;;;;;5072179;28;20530;-79
2022/07/06 11:34:34;;;;;;;3.37;0.97;;;23.90;99.90;;;;;;5073227;28;20895;-80
2022/07/06 11:37:03;;;;;;;3.30;0.90;;;24.40;99.90;;;;;;5078397;28;20451;-80
2022/07/06 11:39:30;;;;;;;6.73;1.10;;;25.30;99.90;;;;;;5079018;28;20497;-80
2022/07/06 11:41:58;;;;;;;2.37;0.80;;;25.60;99.90;;;;;;5073048;28;20553;-82
2022/07/06 11:44:25;;;;;;;2.70;0.83;;;25.40;99.90;;;;;;5073550;28;20883;-82
2022/07/06 11:46:52;;;;;;;2.80;0.87;;;25.10;99.90;;;;;;5078000;28;20469;-80
2022/07/06 11:49:20;;;;;;;6.63;1.27;;;24.60;99.90;;;;;;5076535;28;20499;-81
2022/07/06 11:51:51;;;;;;;3.37;1.30;;;24.00;99.90;;;;;;5067833;28;20525;-78
2022/07/06 11:54:31;;;;;;;5.77;1.00;;;23.30;99.90;;;;;;5077868;28;20450;-78
2022/07/06 11:57:09;;;;;;;5.80;1.40;;;23.00;99.90;;;;;;5081059;28;21080;-81
2022/07/06 11:59:57;;;;;;;;;;;;;;;;;;;;;
2022/07/06 12:02:35;;;;;;;5.57;1.30;;;22.90;99.90;;;;;;5070531;28;20447;-78
2022/07/06 12:05:16;;;;;;;3.67;0.70;;;22.90;99.90;;;;;;5055565;28;20878;-77
2022/07/06 12:07:52;;;;;;;2.20;0.90;;;23.10;99.90;;;;;;5065721;28;20456;-77
2022/07/06 12:10:34;;;;;;;4.77;1.50;;;23.70;99.90;;;;;;5053692;28;20479;-77
2022/07/06 12:13:27;;;;;;;2.63;1.00;;;24.30;99.90;;;;;;5064524;28;20467;-78
2022/07/06 12:15:54;;;;;;;3.03;1.07;;;24.20;99.90;;;;;;5044575;28;21067;-79
2022/07/06 12:18:21;;;;;;;2.47;0.80;;;23.80;99.90;;;;;;5073370;28;20868;-78
2022/07/06 12:21:00;;;;;;;2.63;0.80;;;23.40;99.90;;;;;;5073088;28;20474;-77
2022/07/06 12:23:59;;;;;;;3.33;0.93;;;23.90;99.90;;;;;;5057861;28;20896;-78
2022/07/06 12:26:29;;;;;;;2.23;0.80;;;24.90;99.90;;;;;;5072867;28;20521;-78
2022/07/06 12:29:17;;;;;;;3.10;1.07;;;25.60;99.90;;;;;;5074175;28;20554;-77
2022/07/06 12:31:52;;;;;;;2.70;1.00;;;26.00;99.90;;;;;;5057983;28;21055;-78
2022/07/06 12:34:21;;;;;;;3.43;0.97;;;25.50;99.90;;;;;;5072195;28;20478;-78
2022/07/06 12:37:00;;;;;;;2.90;0.90;;;25.00;99.90;;;;;;5074083;28;20957;-77
2022/07/06 12:39:33;;;;;;;3.83;1.10;;;25.40;99.90;;;;;;5071130;28;20473;-77
2022/07/06 12:42:04;;;;;;;2.10;0.80;;;25.80;99.90;;;;;;5083185;28;20442;-77
2022/07/06 12:44:42;;;;;;;2.10;0.70;;;25.60;99.90;;;;;;5077129;28;21147;-78
2022/07/06 12:47:10;;;;;;;5.93;0.90;;;26.00;99.90;;;;;;5058117;28;20542;-78
2022/07/06 12:49:38;;;;;;;2.10;0.60;;;26.20;99.90;;;;;;5061838;28;20531;-77
2022/07/06 12:52:11;;;;;;;3.73;1.13;;;25.80;99.90;;;;;;5054556;28;20514;-78
2022/07/06 12:54:42;;;;;;;3.70;0.87;;;25.30;99.90;;;;;;5062069;28;20888;-77
2022/07/06 12:57:13;;;;;;;4.07;0.70;;;25.20;99.90;;;;;;5073358;28;20542;-77
2022/07/06 12:59:46;;;;;;;2.50;0.80;;;25.20;99.90;;;;;;5079847;28;20488;-77
2022/07/06 13:02:21;;;;;;;2.60;0.70;;;25.20;99.90;;;;;;5065919;28;20464;-77
2022/07/06 13:04:59;;;;;;;4.60;0.93;;;25.00;99.90;;;;;;5091003;28;20477;-78